createdAt,value
2017-09-16T00:01:02.310Z,11.80
2017-09-16T00:04:03.570Z,11.90
2017-09-16T00:07:04.853Z,11.70
2017-09-16T00:10:06.134Z,11.60
2017-09-16T00:13:08.189Z,11.70
2017-09-16T00:16:09.466Z,11.70
2017-09-16T00:19:10.797Z,11.60
2017-09-16T00:22:12.814Z,11.60
2017-09-16T00:25:14.094Z,11.60
2017-09-16T00:28:15.397Z,11.50
2017-09-16T00:31:16.693Z,11.40
2017-09-16T00:34:18.201Z,11.40
2017-09-16T00:37:19.502Z,11.50
2017-09-16T00:40:20.790Z,11.50
2017-09-16T00:43:22.090Z,11.50
2017-09-16T00:46:23.398Z,11.50
2017-09-16T00:49:24.709Z,11.50
2017-09-16T00:52:26.769Z,11.40
2017-09-16T00:55:28.833Z,11.50
2017-09-16T00:58:30.174Z,11.40
2017-09-16T01:01:31.466Z,11.50
2017-09-16T01:04:39.762Z,11.60
2017-09-16T01:07:41.832Z,11.60
2017-09-16T01:10:43.888Z,11.60
2017-09-16T01:13:46.083Z,11.50
2017-09-16T01:16:47.365Z,11.50
2017-09-16T01:19:48.698Z,11.30
2017-09-16T01:22:50.022Z,11.30
2017-09-16T01:25:51.397Z,11.10
2017-09-16T01:28:52.725Z,11.00
2017-09-16T01:31:54.053Z,11.00
2017-09-16T01:34:56.242Z,11.20
2017-09-16T01:37:57.573Z,11.20
2017-09-16T01:40:59.981Z,11.50
2017-09-16T01:44:01.249Z,11.30
2017-09-16T01:47:02.539Z,11.50
2017-09-16T01:50:04.545Z,11.50
2017-09-16T01:53:05.830Z,11.40
2017-09-16T01:56:07.105Z,11.30
2017-09-16T01:59:09.117Z,11.30
2017-09-16T02:02:10.406Z,11.20
2017-09-16T02:05:11.699Z,11.30
2017-09-16T02:08:13.105Z,11.30
2017-09-16T02:11:14.373Z,11.40
2017-09-16T02:14:15.693Z,11.30
2017-09-16T02:17:16.967Z,11.40
2017-09-16T02:20:18.279Z,11.30
2017-09-16T02:23:20.298Z,11.50
2017-09-16T02:26:22.354Z,11.50
2017-09-16T02:29:23.658Z,11.40
2017-09-16T02:32:25.700Z,11.40
2017-09-16T02:35:27.722Z,11.30
2017-09-16T02:38:29.017Z,11.30
2017-09-16T02:41:30.341Z,11.30
2017-09-16T02:44:31.633Z,11.30
2017-09-16T02:47:34.038Z,11.30
2017-09-16T02:50:35.310Z,11.20
2017-09-16T02:53:36.920Z,11.30
2017-09-16T02:56:38.930Z,11.20
2017-09-16T02:59:40.283Z,11.10
2017-09-16T03:02:41.549Z,11.00
2017-09-16T03:05:42.838Z,10.90
2017-09-16T03:08:44.109Z,11.00
2017-09-16T03:11:45.878Z,11.10
2017-09-16T03:14:47.521Z,11.20
2017-09-16T03:17:48.837Z,11.10
2017-09-16T03:20:50.834Z,11.10
2017-09-16T03:23:52.125Z,11.10
2017-09-16T03:26:53.399Z,11.10
2017-09-16T03:29:55.465Z,11.00
2017-09-16T03:32:57.457Z,11.00
2017-09-16T03:35:58.759Z,11.00
2017-09-16T03:39:00.021Z,11.00
2017-09-16T03:42:02.061Z,10.90
2017-09-16T03:45:03.357Z,10.90
2017-09-16T03:48:04.645Z,10.80
2017-09-16T03:51:05.918Z,10.90
2017-09-16T03:54:07.218Z,10.80
2017-09-16T03:57:08.981Z,10.80
2017-09-16T04:00:10.269Z,10.80
2017-09-16T04:03:11.569Z,10.90
2017-09-16T04:06:12.849Z,10.70
2017-09-16T04:09:14.158Z,10.60
2017-09-16T04:12:15.433Z,10.80
2017-09-16T04:15:16.778Z,10.90
2017-09-16T04:18:18.046Z,10.90
2017-09-16T04:21:19.361Z,11.00
2017-09-16T04:24:20.825Z,10.90
2017-09-16T04:27:22.098Z,10.90
2017-09-16T04:30:23.553Z,10.80
2017-09-16T04:33:24.824Z,10.60
2017-09-16T04:36:26.130Z,10.70
2017-09-16T04:39:27.405Z,10.90
2017-09-16T04:42:28.738Z,11.00
2017-09-16T04:45:30.058Z,10.90
2017-09-16T04:48:31.377Z,10.70
2017-09-16T04:51:32.678Z,10.50
2017-09-16T04:54:33.975Z,10.50
2017-09-16T04:57:36.137Z,10.50
2017-09-16T05:00:37.418Z,10.50
2017-09-16T05:03:38.721Z,10.50
2017-09-16T05:06:39.970Z,10.60
2017-09-16T05:09:41.274Z,10.60
2017-09-16T05:12:42.554Z,10.70
2017-09-16T05:15:43.842Z,10.50
2017-09-16T05:18:45.862Z,10.70
2017-09-16T05:21:47.157Z,10.60
2017-09-16T05:24:49.175Z,10.60
2017-09-16T05:27:50.470Z,10.50
2017-09-16T05:30:52.566Z,10.70
2017-09-16T05:33:53.875Z,10.70
2017-09-16T05:36:55.134Z,10.70
2017-09-16T05:39:57.160Z,10.70
2017-09-16T05:42:58.450Z,10.70
2017-09-16T05:46:00.477Z,10.70
2017-09-16T05:49:02.109Z,10.70
2017-09-16T05:52:03.366Z,10.70
2017-09-16T05:55:04.679Z,10.70
2017-09-16T05:58:06.681Z,10.70
2017-09-16T06:01:08.230Z,10.70
2017-09-16T06:04:16.534Z,10.60
2017-09-16T06:07:17.829Z,10.70
2017-09-16T06:10:19.119Z,10.80
2017-09-16T06:13:20.418Z,10.90
2017-09-16T06:16:21.723Z,11.00
2017-09-16T06:19:23.030Z,10.80
2017-09-16T06:22:24.327Z,10.80
2017-09-16T06:25:25.602Z,10.80
2017-09-16T06:28:26.930Z,10.80
2017-09-16T06:31:28.234Z,10.80
2017-09-16T06:34:29.519Z,10.80
2017-09-16T06:37:30.798Z,10.80
2017-09-16T06:40:32.114Z,10.90
2017-09-16T06:43:33.381Z,11.00
2017-09-16T06:46:34.694Z,10.80
2017-09-16T06:49:36.710Z,10.80
2017-09-16T06:52:38.758Z,10.80
2017-09-16T06:55:40.016Z,10.80
2017-09-16T06:58:42.342Z,10.80
2017-09-16T07:01:44.371Z,10.90
2017-09-16T07:04:45.738Z,10.80
2017-09-16T07:07:47.027Z,10.90
2017-09-16T07:10:48.341Z,10.90
2017-09-16T07:13:49.618Z,10.90
2017-09-16T07:16:50.922Z,11.00
2017-09-16T07:19:52.182Z,11.00
2017-09-16T07:22:53.482Z,11.10
2017-09-16T07:25:54.746Z,11.20
2017-09-16T07:28:56.785Z,11.20
2017-09-16T07:31:58.278Z,11.20
2017-09-16T07:34:59.561Z,11.20
2017-09-16T07:38:01.098Z,11.20
2017-09-16T07:41:02.436Z,11.40
2017-09-16T07:44:03.770Z,11.50
2017-09-16T07:47:05.770Z,11.50
2017-09-16T07:50:07.066Z,11.50
2017-09-16T07:53:08.355Z,11.50
2017-09-16T07:56:09.657Z,11.60
2017-09-16T07:59:11.046Z,11.70
2017-09-16T08:02:12.340Z,11.70
2017-09-16T08:05:13.725Z,11.60
2017-09-16T08:08:15.836Z,11.80
2017-09-16T08:11:17.183Z,11.80
2017-09-16T08:14:18.470Z,11.80
2017-09-16T08:17:19.764Z,11.90
2017-09-16T08:20:21.130Z,11.90
2017-09-16T08:23:22.426Z,12.00
2017-09-16T08:26:23.872Z,12.00
2017-09-16T08:29:25.146Z,12.00
2017-09-16T08:32:27.458Z,12.00
2017-09-16T08:35:28.713Z,12.00
2017-09-16T08:38:30.001Z,12.10
2017-09-16T08:41:31.262Z,12.10
2017-09-16T08:44:33.277Z,12.30
2017-09-16T08:47:36.895Z,12.30
2017-09-16T08:50:38.283Z,12.30
2017-09-16T08:53:40.902Z,12.40
2017-09-16T08:56:42.242Z,12.40
2017-09-16T08:59:43.649Z,12.40
2017-09-16T09:02:44.938Z,12.50
2017-09-16T09:05:46.749Z,12.30
2017-09-16T09:08:48.006Z,12.50
2017-09-16T09:11:49.295Z,12.50
2017-09-16T09:14:50.588Z,12.50
2017-09-16T09:17:51.989Z,12.50
2017-09-16T09:20:53.251Z,12.60
2017-09-16T09:23:54.551Z,12.70
2017-09-16T09:26:55.875Z,12.70
2017-09-16T09:29:57.165Z,12.80
2017-09-16T09:32:59.212Z,13.10
2017-09-16T09:36:00.539Z,13.00
2017-09-16T09:39:02.010Z,13.20
2017-09-16T09:42:03.287Z,13.00
2017-09-16T09:45:05.921Z,13.60
2017-09-16T09:48:07.234Z,13.50
2017-09-16T09:51:08.516Z,13.70
2017-09-16T09:54:09.795Z,13.80
2017-09-16T09:57:11.087Z,14.10
2017-09-16T10:00:12.358Z,14.30
2017-09-16T10:03:13.670Z,14.40
2017-09-16T10:06:14.954Z,14.60
2017-09-16T10:09:16.266Z,14.50
2017-09-16T10:12:18.460Z,14.60
2017-09-16T10:15:19.726Z,14.50
2017-09-16T10:18:21.041Z,14.80
2017-09-16T10:21:22.307Z,15.10
2017-09-16T10:24:23.615Z,15.40
2017-09-16T10:27:25.639Z,15.30
2017-09-16T10:30:27.078Z,15.30
2017-09-16T10:33:28.335Z,15.20
2017-09-16T10:36:29.649Z,15.40
2017-09-16T10:39:30.948Z,15.60
2017-09-16T10:42:32.272Z,15.90
2017-09-16T10:45:33.674Z,16.00
2017-09-16T10:48:35.682Z,16.20
2017-09-16T10:51:37.006Z,16.20
2017-09-16T10:54:38.308Z,16.40
2017-09-16T10:57:39.592Z,16.40
2017-09-16T11:00:41.618Z,16.40
2017-09-16T11:03:42.943Z,16.30
2017-09-16T11:06:44.233Z,16.40
2017-09-16T11:09:45.535Z,16.60
2017-09-16T11:12:46.933Z,17.10
2017-09-16T11:15:48.222Z,17.20
2017-09-16T11:18:49.552Z,16.90
2017-09-16T11:21:51.584Z,16.10
2017-09-16T11:24:52.886Z,16.10
2017-09-16T11:27:54.205Z,15.80
2017-09-16T11:30:55.560Z,15.90
2017-09-16T11:33:57.580Z,16.10
2017-09-16T11:36:58.900Z,16.10
2017-09-16T11:40:00.194Z,16.40
2017-09-16T11:43:01.503Z,16.50
2017-09-16T11:46:02.781Z,16.80
2017-09-16T11:49:04.081Z,16.60
2017-09-16T11:52:06.243Z,16.20
2017-09-16T11:55:08.262Z,16.10
2017-09-16T11:58:09.675Z,16.10
2017-09-16T12:01:10.971Z,16.50
2017-09-16T12:04:12.271Z,16.80
2017-09-16T12:07:14.279Z,17.20
2017-09-16T12:10:15.586Z,17.20
2017-09-16T12:13:16.882Z,16.60
2017-09-16T12:16:18.287Z,16.30
2017-09-16T12:19:20.720Z,16.40
2017-09-16T12:22:22.802Z,17.10
2017-09-16T12:25:24.059Z,17.10
2017-09-16T12:28:26.105Z,17.50
2017-09-16T12:31:27.411Z,17.50
2017-09-16T12:34:28.706Z,17.50
2017-09-16T12:37:29.983Z,17.80
2017-09-16T12:40:32.068Z,18.20
2017-09-16T12:43:34.107Z,18.10
2017-09-16T12:46:36.147Z,18.20
2017-09-16T12:49:37.562Z,18.20
2017-09-16T12:52:38.827Z,18.10
2017-09-16T12:55:40.158Z,17.50
2017-09-16T12:58:41.422Z,16.80
2017-09-16T13:01:42.714Z,16.70
2017-09-16T13:04:43.969Z,16.90
2017-09-16T13:07:46.024Z,17.50
2017-09-16T13:10:47.323Z,17.40
2017-09-16T13:13:48.624Z,17.60
2017-09-16T13:16:49.940Z,17.70
2017-09-16T13:19:51.226Z,17.50
2017-09-16T13:22:52.816Z,17.80
2017-09-16T13:25:54.879Z,18.30
2017-09-16T13:28:56.236Z,18.30
2017-09-16T13:31:57.542Z,18.10
2017-09-16T13:34:58.866Z,17.70
2017-09-16T13:38:00.197Z,17.20
2017-09-16T13:41:02.271Z,16.60
2017-09-16T13:44:03.703Z,16.60
2017-09-16T13:47:05.003Z,15.90
2017-09-16T13:50:06.530Z,16.30
2017-09-16T13:53:07.800Z,16.30
2017-09-16T13:56:09.858Z,16.30
2017-09-16T13:59:11.163Z,16.30
2017-09-16T14:02:12.539Z,16.40
2017-09-16T14:05:13.839Z,17.10
2017-09-16T14:08:15.200Z,17.80
2017-09-16T14:11:17.356Z,18.40
2017-09-16T14:14:18.635Z,18.40
2017-09-16T14:17:19.946Z,18.70
2017-09-16T14:20:21.290Z,18.70
2017-09-16T14:23:23.347Z,17.80
2017-09-16T14:26:24.659Z,17.80
2017-09-16T14:29:25.967Z,17.30
2017-09-16T14:32:27.390Z,16.80
2017-09-16T14:35:28.747Z,16.60
2017-09-16T14:38:30.050Z,16.50
2017-09-16T14:41:31.377Z,16.40
2017-09-16T14:44:32.654Z,16.20
2017-09-16T14:47:33.998Z,16.10
2017-09-16T14:50:35.284Z,16.20
2017-09-16T14:53:36.583Z,16.80
2017-09-16T14:56:37.987Z,17.20
2017-09-16T14:59:39.289Z,17.50
2017-09-16T15:02:40.628Z,18.40
2017-09-16T15:05:42.639Z,18.40
2017-09-16T15:08:43.971Z,18.50
2017-09-16T15:11:45.995Z,17.50
2017-09-16T15:14:47.307Z,17.40
2017-09-16T15:17:48.584Z,17.90
2017-09-16T15:20:50.627Z,18.70
2017-09-16T15:23:51.911Z,18.70
2017-09-16T15:26:53.962Z,19.30
2017-09-16T15:29:55.371Z,19.20
2017-09-16T15:32:56.662Z,18.80
2017-09-16T15:35:57.977Z,18.20
2017-09-16T15:38:59.278Z,17.70
2017-09-16T15:42:01.343Z,17.00
2017-09-16T15:45:03.371Z,16.90
2017-09-16T15:48:04.688Z,16.80
2017-09-16T15:51:06.783Z,16.70
2017-09-16T15:54:08.083Z,16.70
2017-09-16T15:57:09.374Z,16.60
2017-09-16T16:00:10.665Z,16.70
2017-09-16T16:03:11.976Z,16.50
2017-09-16T16:06:13.270Z,16.40
2017-09-16T16:09:14.555Z,16.40
2017-09-16T16:12:15.911Z,16.30
2017-09-16T16:15:17.179Z,16.40
2017-09-16T16:18:18.570Z,16.30
2017-09-16T16:21:19.919Z,16.30
2017-09-16T16:24:21.235Z,16.10
2017-09-16T16:27:22.535Z,16.00
2017-09-16T16:30:24.627Z,16.10
2017-09-16T16:33:26.008Z,16.00
2017-09-16T16:36:27.319Z,16.00
2017-09-16T16:39:29.493Z,15.80
2017-09-16T16:42:30.914Z,15.80
2017-09-16T16:45:32.418Z,15.70
2017-09-16T16:48:33.859Z,15.80
2017-09-16T16:51:35.175Z,15.70
2017-09-16T16:54:37.216Z,15.70
2017-09-16T16:57:38.922Z,15.70
2017-09-16T17:00:40.290Z,15.60
2017-09-16T17:03:41.587Z,15.50
2017-09-16T17:06:43.040Z,15.40
2017-09-16T17:09:50.469Z,15.40
2017-09-16T17:12:51.886Z,15.40
2017-09-16T17:15:53.190Z,15.30
2017-09-16T17:18:55.670Z,15.40
2017-09-16T17:21:56.990Z,15.30
2017-09-16T17:24:59.210Z,15.20
2017-09-16T17:28:00.520Z,15.20
2017-09-16T17:31:01.959Z,15.20
2017-09-16T17:34:04.048Z,15.10
2017-09-16T17:37:05.419Z,15.00
2017-09-16T17:40:06.745Z,13.80
2017-09-16T17:43:08.245Z,14.90
2017-09-16T17:46:09.579Z,14.90
2017-09-16T17:49:11.011Z,14.80
2017-09-16T17:52:12.701Z,14.80
2017-09-16T17:55:14.097Z,14.80
2017-09-16T17:58:15.451Z,14.80
2017-09-16T18:01:16.806Z,14.60
2017-09-16T18:04:18.149Z,14.50
2017-09-16T18:07:19.468Z,14.70
2017-09-16T18:10:20.789Z,14.60
2017-09-16T18:13:23.084Z,14.60
2017-09-16T18:16:24.417Z,14.60
2017-09-16T18:19:27.087Z,14.50
2017-09-16T18:22:28.387Z,14.50
2017-09-16T18:25:30.207Z,14.40
2017-09-16T18:28:31.603Z,14.50
2017-09-16T18:31:33.101Z,14.50
2017-09-16T18:34:34.513Z,13.70
2017-09-16T18:37:36.920Z,14.40
2017-09-16T18:40:39.055Z,14.40
2017-09-16T18:43:41.224Z,14.30
2017-09-16T18:46:42.632Z,14.40
2017-09-16T18:49:44.004Z,14.30
2017-09-16T18:52:47.082Z,14.30
2017-09-16T18:55:48.708Z,14.30
2017-09-16T18:58:50.507Z,14.30
2017-09-16T19:01:52.589Z,14.30
2017-09-16T19:04:54.141Z,13.50
2017-09-16T19:07:55.498Z,14.30
2017-09-16T19:10:56.994Z,14.30
2017-09-16T19:13:59.893Z,14.30
2017-09-16T19:17:02.640Z,14.20
2017-09-16T19:20:04.029Z,14.20
2017-09-16T19:23:06.254Z,14.10
2017-09-16T19:26:07.615Z,14.10
2017-09-16T19:29:09.227Z,14.10
2017-09-16T19:32:10.910Z,14.00
2017-09-16T19:35:14.516Z,13.80
2017-09-16T19:38:15.832Z,14.00
2017-09-16T19:41:18.109Z,13.90
2017-09-16T19:44:21.207Z,14.00
2017-09-16T19:47:22.608Z,14.00
2017-09-16T19:50:24.893Z,13.90
2017-09-16T19:53:26.413Z,13.90
2017-09-16T19:56:28.996Z,13.90
2017-09-16T19:59:30.925Z,13.90
2017-09-16T20:02:32.507Z,13.80
2017-09-16T20:05:34.565Z,13.90
2017-09-16T20:08:36.664Z,13.90
2017-09-16T20:11:38.784Z,13.80
2017-09-16T20:14:40.492Z,13.90
2017-09-16T20:17:43.206Z,13.70
2017-09-16T20:20:44.557Z,13.70
2017-09-16T20:23:46.169Z,13.90
2017-09-16T20:26:48.921Z,13.80
2017-09-16T20:29:51.269Z,13.80
2017-09-16T20:32:54.747Z,13.90
2017-09-16T20:35:57.080Z,14.30
2017-09-16T20:38:59.390Z,13.90
2017-09-16T20:42:00.903Z,13.30
2017-09-16T20:45:04.188Z,13.20
2017-09-16T20:48:06.294Z,13.60
2017-09-16T20:51:09.121Z,13.30
2017-09-16T20:54:12.213Z,13.60
2017-09-16T20:57:13.674Z,13.50
2017-09-16T21:00:15.067Z,11.90
2017-09-16T21:03:16.468Z,13.40
2017-09-16T21:06:17.874Z,13.30
2017-09-16T21:09:19.682Z,13.30
2017-09-16T21:12:21.133Z,13.30
2017-09-16T21:15:22.551Z,13.10
2017-09-16T21:18:24.004Z,13.10
2017-09-16T21:21:26.880Z,13.20
2017-09-16T21:24:28.486Z,13.00
2017-09-16T21:27:29.902Z,11.80
2017-09-16T21:30:31.989Z,12.90
2017-09-16T21:33:34.297Z,12.90
2017-09-16T21:36:35.892Z,12.90
2017-09-16T21:39:38.043Z,12.80
2017-09-16T21:42:39.650Z,12.90
2017-09-16T21:45:41.025Z,12.70
2017-09-16T21:48:43.376Z,12.80
2017-09-16T21:51:45.260Z,12.80
2017-09-16T21:54:46.679Z,12.70
2017-09-16T21:57:48.060Z,12.70
2017-09-16T22:00:50.250Z,12.70
2017-09-16T22:03:51.861Z,12.50
2017-09-16T22:06:53.242Z,12.60
2017-09-16T22:09:54.756Z,12.60
2017-09-16T22:12:56.109Z,12.50
2017-09-16T22:15:57.533Z,11.90
2017-09-16T22:18:59.656Z,12.50
2017-09-16T22:22:01.056Z,12.40
2017-09-16T22:25:02.444Z,12.70
2017-09-16T22:28:04.631Z,12.40
2017-09-16T22:31:06.055Z,12.00
2017-09-16T22:34:07.576Z,12.40
2017-09-16T22:37:09.004Z,12.40
2017-09-16T22:40:10.427Z,12.30
2017-09-16T22:43:11.937Z,12.30
2017-09-16T22:46:13.348Z,12.20
2017-09-16T22:49:15.490Z,12.30
2017-09-16T22:52:17.111Z,11.60
2017-09-16T22:55:19.243Z,12.20
2017-09-16T22:58:20.783Z,12.30
2017-09-16T23:01:22.225Z,12.00
2017-09-16T23:04:24.357Z,12.30
2017-09-16T23:07:25.799Z,12.30
2017-09-16T23:10:27.319Z,12.20
2017-09-16T23:13:29.430Z,12.30
2017-09-16T23:16:30.829Z,12.00
2017-09-16T23:19:32.362Z,11.90
2017-09-16T23:22:33.763Z,12.00
2017-09-16T23:25:35.350Z,12.00
2017-09-16T23:31:45.592Z,12.00
2017-09-16T23:34:47.751Z,12.20
2017-09-16T23:37:49.165Z,12.20
2017-09-16T23:40:51.290Z,12.30
2017-09-16T23:43:52.759Z,12.30
2017-09-16T23:46:54.197Z,12.40
2017-09-16T23:49:56.328Z,12.40
2017-09-16T23:52:57.733Z,12.30
2017-09-16T23:55:59.255Z,12.40
